Hlavní strana
METAR-TAF:

METAR-TAF

Letiště :

Letiště Kišiněv

Kišiněv, Moldavsko

zeměpisná šířka: 46-55-40N, zeměpisná délka: 028-55-51E, výška: 122 m

Aktuální stav počasí

Zpráva byla vytvořena před 37 minutami, v 17:00 UTC
Severoseverovýchodní vítr 5 kt
Teplota -11°C
Vlhkost vzduchu 78%
Tlak 1020 hPa
Viditelnost 10 km a více
Skoro jasno ve výšce 2100 ft
Polojasno ve výšce 2600 ft

METAR: LUKK 181700Z 03005KT 9999 FEW021 SCT026 M11/M14 Q1020 R26/450145 NOSIG

Čas: 19:37 (17:37 UTC)

Předpověď počasí

Zpráva byla vytvořena před 6 hodinami a 17 minutami, v 11:20 UTC
Předpověď platná od 18 v 12 UTC do 19 v 12 UTC
Severoseverozápadní vítr 10 kt
Viditelnost: 8000 m
Oblačno až skoro zataženo ve výšce 2500 ft
Dočasný
od 18 v 12 UTC do 18 v 18 UTC
Oblačno až skoro zataženo ve výšce 1500 ft
Změna
od 19 v 02 UTC do 19 v 04 UTC
Západní vítr 6 kt

TAF: LUKK 181120Z 1812/1912 34010KT 8000 BKN025 TEMPO 1812/1818 BKN015 BECMG 1902/1904 28006KT

Stav a předpovědi počasí z více než 4 000 letišť (zprávy METAR a TAF).

Červené a žluté tečky na mapě představují dostupné meteorologické stanice.

Když kurzor umístíte na tečku, zobrazí se název stanice.

Pak kliknutím zobrazíte stav a předpověď počasí.

Chcete-li změnit mapu, kliknutím na zelené tlačítko se znaménkem +mapu přiblížíte, kliknutím na zelené tlačítko se znaménkem – mapu oddálíte a kliknutím na zelené šipky přejdete na sousední mapy.


METAR-TAF: